createdAt,value
2018-01-27T00:00:06.052Z,3.10
2018-01-27T00:05:09.182Z,3.10
2018-01-27T00:10:11.856Z,3.10
2018-01-27T00:15:14.444Z,3.10
2018-01-27T00:20:17.057Z,3.10
2018-01-27T00:25:19.691Z,3.00
2018-01-27T00:30:23.898Z,3.00
2018-01-27T00:35:27.167Z,3.00
2018-01-27T00:40:30.455Z,3.00
2018-01-27T00:45:33.972Z,3.00
2018-01-27T00:50:36.600Z,3.00
2018-01-27T00:55:44.365Z,3.00
2018-01-27T01:00:48.630Z,3.00
2018-01-27T01:05:52.063Z,2.90
2018-01-27T01:10:56.558Z,2.90
2018-01-27T01:15:59.935Z,2.90
2018-01-27T01:21:02.519Z,2.90
2018-01-27T01:26:06.678Z,2.90
2018-01-27T01:31:11.493Z,2.90
2018-01-27T01:36:15.806Z,2.90
2018-01-27T01:41:19.784Z,2.90
2018-01-27T01:46:24.424Z,2.90
2018-01-27T01:51:27.130Z,2.90
2018-01-27T01:56:29.708Z,2.80
2018-01-27T02:01:33.588Z,2.90
2018-01-27T02:06:36.246Z,2.80
2018-01-27T02:11:38.829Z,2.90
2018-01-27T02:16:41.432Z,2.90
2018-01-27T02:21:45.073Z,2.80
2018-01-27T02:26:49.459Z,2.80
2018-01-27T02:31:53.678Z,2.80
2018-01-27T02:36:56.830Z,2.80
2018-01-27T02:42:01.282Z,2.80
2018-01-27T02:47:05.101Z,2.80
2018-01-27T02:52:08.882Z,2.80
2018-01-27T02:57:13.729Z,2.80
2018-01-27T03:02:17.257Z,2.80
2018-01-27T03:07:21.350Z,2.80
2018-01-27T03:12:26.652Z,2.80
2018-01-27T03:17:30.386Z,2.80
2018-01-27T03:22:34.722Z,2.80
2018-01-27T03:27:38.873Z,2.70
2018-01-27T03:32:42.160Z,2.70
2018-01-27T03:37:45.326Z,2.80
2018-01-27T03:42:53.093Z,2.70
2018-01-27T03:47:56.766Z,2.70
2018-01-27T03:53:01.842Z,2.80
2018-01-27T03:58:06.954Z,2.80
2018-01-27T04:03:11.527Z,2.70
2018-01-27T04:08:17.769Z,2.70
2018-01-27T04:13:24.256Z,2.80
2018-01-27T04:18:29.523Z,2.70
2018-01-27T04:23:32.706Z,2.70
2018-01-27T04:28:37.918Z,2.70
2018-01-27T04:33:41.848Z,2.70
2018-01-27T04:38:45.224Z,2.70
2018-01-27T04:43:49.994Z,2.70
2018-01-27T04:48:53.877Z,2.70
2018-01-27T04:53:58.100Z,2.70
2018-01-27T04:59:02.890Z,2.70
2018-01-27T05:04:06.063Z,2.70
2018-01-27T05:09:09.914Z,2.70
2018-01-27T05:14:13.559Z,2.70
2018-01-27T05:19:17.728Z,2.70
2018-01-27T05:24:20.396Z,2.70
2018-01-27T05:29:23.677Z,2.70
2018-01-27T05:34:27.879Z,2.70
2018-01-27T05:39:34.209Z,2.70
2018-01-27T05:44:37.910Z,2.70
2018-01-27T05:49:57.352Z,2.70
2018-01-27T05:55:00.830Z,2.70
2018-01-27T06:00:03.574Z,2.70
2018-01-27T06:05:12.155Z,2.70
2018-01-27T06:10:15.860Z,2.70
2018-01-27T06:15:20.333Z,2.70
2018-01-27T06:20:25.021Z,2.70
2018-01-27T06:25:28.116Z,2.70
2018-01-27T06:30:31.185Z,2.70
2018-01-27T06:35:36.432Z,2.70
2018-01-27T06:40:39.532Z,2.70
2018-01-27T06:45:44.704Z,2.70
2018-01-27T06:50:48.631Z,2.70
2018-01-27T06:55:52.022Z,2.70
2018-01-27T07:00:56.123Z,2.70
2018-01-27T07:05:59.391Z,2.70
2018-01-27T07:11:05.243Z,2.70
2018-01-27T07:16:09.877Z,2.70
2018-01-27T07:21:13.645Z,2.70
2018-01-27T07:26:16.568Z,2.70
2018-01-27T07:31:20.518Z,2.70
2018-01-27T07:36:23.462Z,2.70
2018-01-27T07:41:26.371Z,2.70
2018-01-27T07:46:31.076Z,2.70
2018-01-27T07:51:38.603Z,2.70
2018-01-27T07:56:43.766Z,2.80
2018-01-27T08:01:47.427Z,2.70
2018-01-27T08:06:52.531Z,2.80
2018-01-27T08:11:56.094Z,2.80
2018-01-27T08:17:01.003Z,2.80
2018-01-27T08:22:03.840Z,2.80
2018-01-27T08:27:06.665Z,2.80
2018-01-27T08:32:11.095Z,2.80
2018-01-27T08:37:21.489Z,2.80
2018-01-27T08:42:27.103Z,2.80
2018-01-27T08:47:31.961Z,2.90
2018-01-27T08:52:36.459Z,2.90
2018-01-27T08:57:40.072Z,2.90
2018-01-27T09:02:43.012Z,3.00
2018-01-27T09:07:49.440Z,3.00
2018-01-27T09:12:53.955Z,3.00
2018-01-27T09:17:57.283Z,3.00
2018-01-27T09:23:08.260Z,3.10
2018-01-27T09:28:11.417Z,3.10
2018-01-27T09:33:14.418Z,3.20
2018-01-27T09:38:17.236Z,3.20
2018-01-27T09:43:22.089Z,3.30
2018-01-27T09:48:24.824Z,3.20
2018-01-27T09:53:28.264Z,3.30
2018-01-27T09:58:31.056Z,3.30
2018-01-27T10:03:33.786Z,3.30
2018-01-27T10:08:36.552Z,3.40
2018-01-27T10:13:40.188Z,3.40
2018-01-27T10:18:43.567Z,3.40
2018-01-27T10:23:48.166Z,3.50
2018-01-27T10:28:51.162Z,3.50
2018-01-27T10:33:54.720Z,3.50
2018-01-27T10:38:57.354Z,3.50
2018-01-27T10:44:01.573Z,3.60
2018-01-27T10:49:06.758Z,3.70
2018-01-27T10:54:09.575Z,3.80
2018-01-27T10:59:12.454Z,3.90
2018-01-27T11:04:15.230Z,4.00
2018-01-27T11:09:18.659Z,4.20
2018-01-27T11:14:21.907Z,4.40
2018-01-27T11:19:24.746Z,4.50
2018-01-27T11:24:30.015Z,4.60
2018-01-27T11:29:34.424Z,4.70
2018-01-27T11:34:38.046Z,4.80
2018-01-27T11:39:41.564Z,4.80
2018-01-27T11:44:44.590Z,4.90
2018-01-27T11:49:48.150Z,4.90
2018-01-27T11:54:51.271Z,4.90
2018-01-27T11:59:54.772Z,5.00
2018-01-27T12:04:58.140Z,4.90
2018-01-27T12:10:00.815Z,4.90
2018-01-27T12:15:03.676Z,4.90
2018-01-27T12:20:10.163Z,4.90
2018-01-27T12:25:13.936Z,4.90
2018-01-27T12:30:17.124Z,4.90
2018-01-27T12:35:24.013Z,5.00
2018-01-27T12:40:27.847Z,5.00
2018-01-27T12:45:32.022Z,5.00
2018-01-27T12:50:44.252Z,5.10
2018-01-27T12:55:49.273Z,5.10
2018-01-27T13:00:54.829Z,5.10
2018-01-27T13:05:58.211Z,5.20
2018-01-27T13:11:01.134Z,5.20
2018-01-27T13:16:04.837Z,5.30
2018-01-27T13:21:07.694Z,5.30
2018-01-27T13:26:10.424Z,5.40
2018-01-27T13:31:14.176Z,5.40
2018-01-27T13:36:16.937Z,5.40
2018-01-27T13:41:19.993Z,5.50
2018-01-27T13:46:22.816Z,5.50
2018-01-27T13:51:25.697Z,5.50
2018-01-27T13:56:30.845Z,5.50
2018-01-27T14:01:35.609Z,5.50
2018-01-27T14:06:39.247Z,5.60
2018-01-27T14:11:45.335Z,5.60
2018-01-27T14:16:48.899Z,5.60
2018-01-27T14:21:51.749Z,5.60
2018-01-27T14:26:54.718Z,5.60
2018-01-27T14:31:59.018Z,5.60
2018-01-27T14:37:03.587Z,5.60
2018-01-27T14:42:06.665Z,5.60
2018-01-27T14:47:12.152Z,5.50
2018-01-27T14:52:16.635Z,5.50
2018-01-27T14:57:19.546Z,5.50
2018-01-27T15:02:23.104Z,5.50
2018-01-27T15:07:27.444Z,5.50
2018-01-27T15:12:34.977Z,5.40
2018-01-27T15:22:47.449Z,5.40
2018-01-27T15:27:50.628Z,5.30
2018-01-27T15:32:53.765Z,5.30
2018-01-27T15:37:57.268Z,5.30
2018-01-27T15:43:02.258Z,5.20
2018-01-27T15:48:04.959Z,5.20
2018-01-27T15:53:07.694Z,5.20
2018-01-27T15:58:12.037Z,5.10
2018-01-27T16:03:14.826Z,5.10
2018-01-27T16:08:17.934Z,5.10
2018-01-27T16:13:21.857Z,5.00
2018-01-27T16:18:25.219Z,5.00
2018-01-27T16:23:28.634Z,5.00
2018-01-27T16:28:31.312Z,4.90
2018-01-27T16:33:33.884Z,4.90
2018-01-27T16:38:36.450Z,4.90
2018-01-27T16:43:39.048Z,4.80
2018-01-27T16:48:42.429Z,4.80
2018-01-27T16:53:45.019Z,4.80
2018-01-27T16:58:47.612Z,4.70
2018-01-27T17:03:50.998Z,4.70
2018-01-27T17:08:53.542Z,4.70
2018-01-27T17:13:56.147Z,4.70
2018-01-27T17:18:58.711Z,4.60
2018-01-27T17:24:01.302Z,4.60
2018-01-27T17:29:04.037Z,4.60
2018-01-27T17:34:07.420Z,4.50
2018-01-27T17:39:10.217Z,4.50
2018-01-27T17:44:12.827Z,4.50
2018-01-27T17:49:16.065Z,4.40
2018-01-27T17:54:19.779Z,4.40
2018-01-27T17:59:22.776Z,4.40
2018-01-27T18:04:25.756Z,4.40
2018-01-27T18:09:28.723Z,4.40
2018-01-27T18:14:31.609Z,4.30
2018-01-27T18:19:35.049Z,4.30
2018-01-27T18:24:38.754Z,4.30
2018-01-27T18:29:43.216Z,4.20
2018-01-27T18:34:46.432Z,4.20
2018-01-27T18:39:49.134Z,4.20
2018-01-27T18:44:53.578Z,4.20
2018-01-27T18:49:57.265Z,4.20
2018-01-27T18:55:01.508Z,4.10
2018-01-27T19:00:06.417Z,4.10
2018-01-27T19:05:09.140Z,4.10
2018-01-27T19:10:12.068Z,4.10
2018-01-27T19:15:14.894Z,4.10
2018-01-27T19:20:19.909Z,4.00
2018-01-27T19:25:22.567Z,4.00
2018-01-27T19:30:25.940Z,4.00
2018-01-27T19:35:28.957Z,4.00
2018-01-27T19:40:31.924Z,4.00
2018-01-27T19:45:35.038Z,4.00
2018-01-27T19:50:39.867Z,4.00
2018-01-27T19:55:42.660Z,4.00
2018-01-27T20:00:46.770Z,3.90
2018-01-27T20:05:52.263Z,3.90
2018-01-27T20:10:55.353Z,3.90
2018-01-27T20:15:58.425Z,3.90
2018-01-27T20:21:06.374Z,3.90
2018-01-27T20:26:09.136Z,3.90
2018-01-27T20:31:12.093Z,3.80
2018-01-27T20:36:16.632Z,3.80
2018-01-27T20:41:19.514Z,3.80
2018-01-27T20:46:23.784Z,3.80
2018-01-27T20:51:27.698Z,3.80
2018-01-27T20:56:30.615Z,3.70
2018-01-27T21:01:34.903Z,3.70
2018-01-27T21:06:37.753Z,3.70
2018-01-27T21:11:41.234Z,3.70
2018-01-27T21:16:44.463Z,3.70
2018-01-27T21:21:50.841Z,3.70
2018-01-27T21:26:56.026Z,3.70
2018-01-27T21:31:59.345Z,3.70
2018-01-27T21:37:02.201Z,3.60
2018-01-27T21:42:09.015Z,3.60
2018-01-27T21:47:13.585Z,3.60
2018-01-27T21:52:16.679Z,3.60
2018-01-27T21:57:19.745Z,3.60
2018-01-27T22:02:23.695Z,3.50
2018-01-27T22:07:27.647Z,3.50
2018-01-27T22:12:32.572Z,3.50
2018-01-27T22:17:38.313Z,3.50
2018-01-27T22:22:41.462Z,3.40
2018-01-27T22:27:45.288Z,3.40
2018-01-27T23:31:52.029Z,3.40
2018-01-27T23:36:58.571Z,3.40
2018-01-27T23:42:03.024Z,3.40
2018-01-27T23:47:06.294Z,3.40
2018-01-27T23:52:11.374Z,3.30
2018-01-27T23:57:14.556Z,3.30
